Arnold, Maryland
Current Conditions -  °F | °C
As of 12:54 PM on Sunday 21 Dec 2014 (Local Time) from KNAK Reporting Station
Overcast Overcast  
Wind Chill:   Ceiling: 7000
Heat Index:   Visibility: 9mi
Dew Point: -4°   Wind: 7mph
Humidity: 57%   Direction: 330°NNW
Pressure: 30.32"   Gusts: NA
Location:  39.03°N, 76.51°W
Report Text: KNAK 211754Z AUTO 33006KT 9SM OVC070 03/M04 A3032 RMK AO2 SLP269 T00331044 10033 20011 $
Loading
Personal Weather Stations






























Interactive Weather Map New forecast layout! Learn more

10-Day Weather Forecast

Advertisements
Track Severe Weather on mobile